Aérodrome :







RETROUVEZ-NOUS SUR...

 
LOGIN :

S'inscrire | Disclaimer

   EN    FR    IT 

 









Légende :    VFR   VFR Marginal   IFR   IFR Intensif   IFR Très Intensif
Visi : 
Plafond : 
>= 8 km
>= 3000ft
5 à 8 km
1000 à 3000 ft
1500m à 5 km
500 à 1000 ft
800 à 1500m
200 à 500 ft
< 800m
< 200 ft
Symboles :   Orages  Brouillard  Fortes neiges  Fortes précipitations  Vent > 20 kt






- Altitude de l'aérodrome : 10 ft
- Code IATA : BRX


MDBH - Maria Montez Int.

DERNIER METAR :
  • 251500Z 13016KT 9999 FEW020CB FEW023 SCT070 30/25 Q1015 CB/SE/SW/NW

METARs EXPIRÉS :
  • 251400Z 13012KT 9999 FEW018CB FEW022 SCT070 30/25 Q1015 CB/SE/SW/NW
  • 251300Z 13012KT 9999 FEW018CB FEW020 SCT070 29/24 Q1014 CB/SE/SW/NW

TAF TAF MDBH
Valide du 25 à 12h jusqu'au 26 à 12h UTC


251000Z 2512/2612 13012KT 9999 FEW020CB FEW022 SCT300
FIR MDCS / Amérique du Nord



MET'MAP, la Météo Aéronautique d'un coup d'oeil ! - Copyright ORBIFLY Décembre 2007 - Disclaimer

ORBIFLY MET'MAP TEAM :

Programmation & Développement : Alexandra Zaïnal
Sur une idée originale de : Baudouin d'Aumeries
Assistance à la programmation : Marc-Olivier Méhu
Soutien technique & logistique : Manuel Goepfert

Contact : metmap@orbifly.com




SOURCES & CREDITS :

   NOAA